EZY26AP EGKK-LGRP
Flight info
| Callsign | EZY26AP |
|---|---|
| Flight time | 3h 28m |
| Altitude | 35000 |
| Route | ODVIK Y311 DVR UL9 KONAN DCT KOK DCT REMBA DCT LIRSU DCT LALMI DCT ABTAL DCT LATLO DCT OBEDI DCT KFT DCT OLEZE DCT TEBLI DCT MEDUX UM867 KOGAT DCT ERANA DCT TSL UN130 MES UN139 LURUS UL995 CODIC |
| Aircraft | A320/M-SDE3FGHIRWY/LB1 |
Departure
| Time | 2026-05-04 13:59 |
|---|---|
| Airport | London Gatwick Airport (EGKK) |
Arrival
| Time | 2026-05-04 17:27 |
|---|---|
| Airport | Rhodes International Airport "Diagoras" (LGRP) |
| Time | Latitude | Longitude | Altitude | Speed | Heading |
|---|---|---|---|---|---|
| 2026-05-04 13:15 | 51.15573 | -0.17756 | 209 ft | 0 kts | 348° |
| 2026-05-04 13:48 | 51.15571 | -0.17755 | 203 ft | 3 kts | 347° |
| 2026-05-04 13:48 | 51.15545 | -0.17746 | 215 ft | 4 kts | 347° |
| 2026-05-04 13:48 | 51.15524 | -0.17739 | 213 ft | 4 kts | 333° |
| 2026-05-04 13:48 | 51.15511 | -0.17714 | 216 ft | 4 kts | 265° |
| 2026-05-04 13:49 | 51.15516 | -0.17674 | 214 ft | 4 kts | 257° |
| 2026-05-04 13:49 | 51.15520 | -0.17643 | 214 ft | 0 kts | 257° |
| 2026-05-04 13:52 | 51.15516 | -0.17669 | 214 ft | 6 kts | 257° |
| 2026-05-04 13:52 | 51.15508 | -0.17730 | 210 ft | 5 kts | 257° |
| 2026-05-04 13:53 | 51.15492 | -0.17840 | 203 ft | 15 kts | 257° |
| 2026-05-04 13:53 | 51.15465 | -0.18035 | 203 ft | 18 kts | 258° |
| 2026-05-04 13:53 | 51.15441 | -0.18220 | 207 ft | 16 kts | 257° |
| 2026-05-04 13:54 | 51.15281 | -0.18240 | 204 ft | 11 kts | 168° |
| 2026-05-04 13:54 | 51.15211 | -0.18230 | 211 ft | 12 kts | 199° |
| 2026-05-04 13:54 | 51.15138 | -0.18679 | 206 ft | 23 kts | 257° |
| 2026-05-04 13:55 | 51.15102 | -0.18936 | 203 ft | 24 kts | 257° |
| 2026-05-04 13:55 | 51.15031 | -0.19457 | 204 ft | 25 kts | 258° |
| 2026-05-04 13:55 | 51.14995 | -0.19726 | 208 ft | 25 kts | 258° |
| 2026-05-04 13:56 | 51.14956 | -0.20003 | 214 ft | 26 kts | 257° |
| 2026-05-04 13:56 | 51.14916 | -0.20288 | 203 ft | 27 kts | 258° |
| 2026-05-04 13:56 | 51.14835 | -0.20875 | 206 ft | 27 kts | 257° |
| 2026-05-04 13:57 | 51.14797 | -0.21137 | 216 ft | 21 kts | 251° |
| 2026-05-04 13:57 | 51.14762 | -0.21350 | 204 ft | 15 kts | 252° |
| 2026-05-04 13:58 | 51.14557 | -0.21291 | 207 ft | 9 kts | 150° |
| 2026-05-04 13:58 | 51.14585 | -0.20682 | 208 ft | 77 kts | 78° |
| 2026-05-04 13:58 | 51.14753 | -0.19462 | 214 ft | 145 kts | 77° |
| 2026-05-04 13:59 | 51.15005 | -0.17661 | 316 ft | 184 kts | 78° |
| 2026-05-04 13:59 | 51.15249 | -0.15693 | 1215 ft | 180 kts | 78° |
| 2026-05-04 13:59 | 51.15804 | -0.11668 | 2137 ft | 204 kts | 77° |
| 2026-05-04 14:00 | 51.16128 | -0.09361 | 2394 ft | 223 kts | 77° |
| 2026-05-04 14:00 | 51.16827 | -0.04281 | 3520 ft | 243 kts | 81° |
| 2026-05-04 14:00 | 51.16873 | -0.01482 | 3956 ft | 260 kts | 91° |
| 2026-05-04 14:01 | 51.16817 | 0.01426 | 4667 ft | 265 kts | 91° |
| 2026-05-04 14:01 | 51.16760 | 0.04391 | 5409 ft | 270 kts | 91° |
| 2026-05-04 14:01 | 51.16643 | 0.10427 | 6873 ft | 278 kts | 92° |
| 2026-05-04 14:02 | 51.16583 | 0.13529 | 7590 ft | 282 kts | 92° |
| 2026-05-04 14:02 | 51.16529 | 0.16664 | 8331 ft | 285 kts | 91° |
| 2026-05-04 14:02 | 51.16518 | 0.19837 | 9096 ft | 288 kts | 90° |
| 2026-05-04 14:02 | 51.16531 | 0.23046 | 9845 ft | 291 kts | 90° |
| 2026-05-04 14:03 | 51.16551 | 0.26289 | 10506 ft | 294 kts | 90° |
| 2026-05-04 14:03 | 51.16569 | 0.29561 | 11166 ft | 297 kts | 90° |
| 2026-05-04 14:03 | 51.16580 | 0.32872 | 11825 ft | 300 kts | 91° |
| 2026-05-04 14:03 | 51.16586 | 0.36210 | 12473 ft | 303 kts | 91° |
| 2026-05-04 14:04 | 51.16587 | 0.43007 | 13771 ft | 310 kts | 91° |
| 2026-05-04 14:04 | 51.16588 | 0.46403 | 14337 ft | 312 kts | 91° |
| 2026-05-04 14:04 | 51.16589 | 0.49882 | 14839 ft | 319 kts | 91° |
| 2026-05-04 14:05 | 51.16585 | 0.57351 | 15087 ft | 355 kts | 91° |
| 2026-05-04 14:05 | 51.16583 | 0.61368 | 15222 ft | 371 kts | 91° |
| 2026-05-04 14:05 | 51.16580 | 0.65543 | 15489 ft | 381 kts | 91° |
| 2026-05-04 14:06 | 51.16575 | 0.69791 | 15965 ft | 385 kts | 91° |
| 2026-05-04 14:06 | 51.16567 | 0.74071 | 16481 ft | 388 kts | 91° |
| 2026-05-04 14:06 | 51.16558 | 0.78385 | 17006 ft | 390 kts | 92° |
| 2026-05-04 14:06 | 51.16545 | 0.82666 | 17515 ft | 393 kts | 92° |
| 2026-05-04 14:07 | 51.16530 | 0.87031 | 18020 ft | 396 kts | 92° |
| 2026-05-04 14:07 | 51.16514 | 0.91436 | 18477 ft | 398 kts | 92° |
| 2026-05-04 14:07 | 51.16496 | 0.95863 | 18897 ft | 401 kts | 92° |
| 2026-05-04 14:07 | 51.16476 | 1.00323 | 19325 ft | 404 kts | 92° |
| 2026-05-04 14:08 | 51.16455 | 1.04808 | 19737 ft | 406 kts | 92° |
| 2026-05-04 14:08 | 51.16431 | 1.09319 | 20137 ft | 409 kts | 92° |
| 2026-05-04 14:08 | 51.16406 | 1.13873 | 20538 ft | 412 kts | 92° |
| 2026-05-04 14:08 | 51.16379 | 1.18444 | 20937 ft | 414 kts | 92° |
| 2026-05-04 14:09 | 51.16321 | 1.27608 | 21716 ft | 419 kts | 92° |
| 2026-05-04 14:09 | 51.16289 | 1.32269 | 22099 ft | 422 kts | 93° |
| 2026-05-04 14:10 | 51.16115 | 1.41653 | 22846 ft | 426 kts | 96° |
| 2026-05-04 14:10 | 51.15899 | 1.46373 | 23175 ft | 429 kts | 97° |
| 2026-05-04 14:10 | 51.15635 | 1.51116 | 23516 ft | 431 kts | 98° |
| 2026-05-04 14:10 | 51.15357 | 1.55884 | 23817 ft | 434 kts | 98° |
| 2026-05-04 14:11 | 51.15084 | 1.60680 | 24123 ft | 436 kts | 97° |
| 2026-05-04 14:11 | 51.14584 | 1.70269 | 24720 ft | 439 kts | 97° |
| 2026-05-04 14:11 | 51.14347 | 1.75125 | 25013 ft | 441 kts | 97° |
| 2026-05-04 14:12 | 51.14110 | 1.80008 | 25302 ft | 443 kts | 97° |
| 2026-05-04 14:12 | 51.13867 | 1.84900 | 25595 ft | 444 kts | 97° |
| 2026-05-04 14:12 | 51.13356 | 1.94747 | 26123 ft | 449 kts | 98° |
| 2026-05-04 14:13 | 51.13093 | 1.99709 | 26393 ft | 450 kts | 98° |
| 2026-05-04 14:13 | 51.12830 | 2.04683 | 26673 ft | 452 kts | 98° |
| 2026-05-04 14:13 | 51.12568 | 2.09676 | 26948 ft | 453 kts | 98° |
| 2026-05-04 14:13 | 51.12307 | 2.14614 | 27220 ft | 455 kts | 98° |
| 2026-05-04 14:14 | 51.12038 | 2.19633 | 27466 ft | 456 kts | 98° |
| 2026-05-04 14:14 | 51.11487 | 2.29718 | 27976 ft | 459 kts | 98° |
| 2026-05-04 14:14 | 51.11205 | 2.34783 | 28223 ft | 460 kts | 98° |
| 2026-05-04 14:15 | 51.10628 | 2.44969 | 28655 ft | 464 kts | 98° |
| 2026-05-04 14:15 | 51.10048 | 2.55143 | 29119 ft | 466 kts | 98° |
| 2026-05-04 14:16 | 51.09341 | 2.65405 | 29572 ft | 465 kts | 105° |
| 2026-05-04 14:16 | 51.08536 | 2.70354 | 29901 ft | 461 kts | 110° |
| 2026-05-04 14:17 | 51.06766 | 2.80130 | 30479 ft | 459 kts | 110° |
| 2026-05-04 14:17 | 51.05887 | 2.85002 | 30715 ft | 458 kts | 110° |
| 2026-05-04 14:17 | 51.04123 | 2.94718 | 31266 ft | 457 kts | 111° |
| 2026-05-04 14:18 | 51.03251 | 2.99488 | 31498 ft | 456 kts | 111° |
| 2026-05-04 14:18 | 51.01471 | 3.09156 | 31968 ft | 456 kts | 111° |
| 2026-05-04 14:19 | 50.99686 | 3.18812 | 32428 ft | 456 kts | 111° |
| 2026-05-04 14:19 | 50.98792 | 3.23633 | 32653 ft | 455 kts | 111° |
| 2026-05-04 14:19 | 50.97896 | 3.28452 | 32876 ft | 455 kts | 111° |
| 2026-05-04 14:19 | 50.96998 | 3.33272 | 33062 ft | 456 kts | 111° |
| 2026-05-04 14:20 | 50.96097 | 3.38096 | 33266 ft | 456 kts | 111° |
| 2026-05-04 14:20 | 50.95207 | 3.42850 | 33469 ft | 456 kts | 112° |
| 2026-05-04 14:20 | 50.94302 | 3.47669 | 33685 ft | 456 kts | 112° |
| 2026-05-04 14:21 | 50.92486 | 3.57311 | 34108 ft | 456 kts | 112° |
| 2026-05-04 14:21 | 50.91579 | 3.62130 | 34291 ft | 456 kts | 112° |
| 2026-05-04 14:21 | 50.90666 | 3.66943 | 34472 ft | 456 kts | 112° |
| 2026-05-04 14:21 | 50.89748 | 3.71754 | 34657 ft | 456 kts | 112° |
| 2026-05-04 14:22 | 50.88828 | 3.76560 | 34830 ft | 456 kts | 112° |
| 2026-05-04 14:22 | 50.87919 | 3.81314 | 34949 ft | 458 kts | 112° |
| 2026-05-04 14:22 | 50.86067 | 3.90964 | 34975 ft | 458 kts | 112° |
| 2026-05-04 14:23 | 50.83277 | 4.05432 | 34985 ft | 458 kts | 112° |
| 2026-05-04 14:24 | 50.81407 | 4.15065 | 34993 ft | 458 kts | 112° |
| 2026-05-04 14:24 | 50.79520 | 4.24692 | 34987 ft | 458 kts | 112° |
| 2026-05-04 14:25 | 50.77647 | 4.34233 | 35001 ft | 458 kts | 112° |
| 2026-05-04 14:25 | 50.74807 | 4.48619 | 35006 ft | 457 kts | 112° |
| 2026-05-04 14:26 | 50.72905 | 4.58190 | 35007 ft | 457 kts | 112° |
| 2026-05-04 14:26 | 50.70989 | 4.67752 | 34987 ft | 457 kts | 113° |
| 2026-05-04 14:27 | 50.69069 | 4.77297 | 34980 ft | 457 kts | 112° |
| 2026-05-04 14:27 | 50.67152 | 4.86778 | 34983 ft | 457 kts | 113° |
| 2026-05-04 14:28 | 50.64839 | 4.96032 | 34990 ft | 451 kts | 120° |
| 2026-05-04 14:28 | 50.62157 | 5.04970 | 34988 ft | 451 kts | 121° |
| 2026-05-04 14:29 | 50.56757 | 5.22825 | 34966 ft | 453 kts | 121° |
| 2026-05-04 14:30 | 50.54055 | 5.31713 | 34972 ft | 454 kts | 121° |
| 2026-05-04 14:31 | 50.49961 | 5.45123 | 34975 ft | 454 kts | 121° |
| 2026-05-04 14:32 | 50.44480 | 5.62994 | 34967 ft | 454 kts | 121° |
| 2026-05-04 14:32 | 50.41721 | 5.71916 | 34973 ft | 455 kts | 121° |
| 2026-05-04 14:33 | 50.38971 | 5.80780 | 34979 ft | 455 kts | 121° |
| 2026-05-04 14:33 | 50.36197 | 5.89702 | 34983 ft | 456 kts | 121° |
| 2026-05-04 14:34 | 50.33422 | 5.98598 | 34990 ft | 456 kts | 121° |
| 2026-05-04 14:34 | 50.30624 | 6.07527 | 34976 ft | 456 kts | 121° |
| 2026-05-04 14:35 | 50.27847 | 6.16371 | 34980 ft | 456 kts | 121° |
| 2026-05-04 14:35 | 50.25044 | 6.25261 | 34990 ft | 456 kts | 121° |
| 2026-05-04 14:36 | 50.22228 | 6.34140 | 34988 ft | 456 kts | 121° |
| 2026-05-04 14:36 | 50.19408 | 6.42997 | 34995 ft | 456 kts | 121° |
| 2026-05-04 14:37 | 50.16541 | 6.51814 | 34957 ft | 455 kts | 122° |
| 2026-05-04 14:37 | 50.13571 | 6.60534 | 34988 ft | 455 kts | 123° |
| 2026-05-04 14:38 | 50.10596 | 6.69167 | 34995 ft | 456 kts | 123° |
| 2026-05-04 14:38 | 50.07619 | 6.77881 | 35001 ft | 456 kts | 123° |
| 2026-05-04 14:39 | 50.04647 | 6.86604 | 34964 ft | 456 kts | 123° |
| 2026-05-04 14:39 | 50.01660 | 6.95319 | 34984 ft | 457 kts | 123° |
| 2026-05-04 14:40 | 49.97152 | 7.08404 | 35010 ft | 458 kts | 123° |
| 2026-05-04 14:40 | 49.94133 | 7.17121 | 35021 ft | 458 kts | 123° |
| 2026-05-04 14:41 | 49.91128 | 7.25766 | 35006 ft | 458 kts | 123° |
| 2026-05-04 14:42 | 49.85070 | 7.43147 | 34994 ft | 459 kts | 123° |
| 2026-05-04 14:42 | 49.82023 | 7.51825 | 34997 ft | 459 kts | 123° |
| 2026-05-04 14:43 | 49.78971 | 7.60501 | 35003 ft | 459 kts | 123° |
| 2026-05-04 14:43 | 49.75937 | 7.69110 | 34997 ft | 459 kts | 123° |
| 2026-05-04 14:44 | 49.72873 | 7.77769 | 34981 ft | 459 kts | 123° |
| 2026-05-04 14:44 | 49.69796 | 7.86412 | 34973 ft | 459 kts | 123° |
| 2026-05-04 14:45 | 49.66710 | 7.95045 | 34980 ft | 459 kts | 123° |
| 2026-05-04 14:45 | 49.63633 | 8.03665 | 34986 ft | 459 kts | 123° |
| 2026-05-04 14:46 | 49.60546 | 8.12283 | 34965 ft | 459 kts | 123° |
| 2026-05-04 14:46 | 49.57469 | 8.20821 | 34968 ft | 459 kts | 124° |
| 2026-05-04 14:47 | 49.54351 | 8.29417 | 34966 ft | 460 kts | 124° |
| 2026-05-04 14:47 | 49.51231 | 8.38010 | 34969 ft | 460 kts | 124° |
| 2026-05-04 14:48 | 49.48100 | 8.46607 | 34961 ft | 461 kts | 124° |
| 2026-05-04 14:48 | 49.44986 | 8.55132 | 34963 ft | 461 kts | 124° |
| 2026-05-04 14:49 | 49.41841 | 8.63717 | 34955 ft | 461 kts | 124° |
| 2026-05-04 14:49 | 49.38698 | 8.72292 | 34962 ft | 461 kts | 124° |
| 2026-05-04 14:50 | 49.35542 | 8.80852 | 34971 ft | 461 kts | 124° |
| 2026-05-04 14:50 | 49.32359 | 8.89378 | 34975 ft | 461 kts | 124° |
| 2026-05-04 14:51 | 49.29163 | 8.97823 | 34953 ft | 462 kts | 124° |
| 2026-05-04 14:51 | 49.25928 | 9.06330 | 34971 ft | 462 kts | 124° |
| 2026-05-04 14:52 | 49.22685 | 9.14835 | 34965 ft | 463 kts | 124° |
| 2026-05-04 14:52 | 49.19441 | 9.23334 | 34967 ft | 463 kts | 124° |
| 2026-05-04 14:53 | 49.16184 | 9.31842 | 34959 ft | 464 kts | 124° |
| 2026-05-04 14:53 | 49.12924 | 9.40338 | 34957 ft | 464 kts | 124° |
| 2026-05-04 14:54 | 49.09648 | 9.48819 | 34977 ft | 464 kts | 124° |
| 2026-05-04 14:54 | 49.06390 | 9.57234 | 34992 ft | 464 kts | 124° |
| 2026-05-04 14:55 | 49.03112 | 9.65691 | 34996 ft | 464 kts | 124° |
| 2026-05-04 14:55 | 48.99828 | 9.74139 | 34985 ft | 463 kts | 124° |
| 2026-05-04 14:56 | 48.96537 | 9.82566 | 34991 ft | 463 kts | 124° |
| 2026-05-04 14:56 | 48.93234 | 9.90972 | 34992 ft | 462 kts | 124° |
| 2026-05-04 14:57 | 48.89936 | 9.99360 | 34986 ft | 462 kts | 124° |
| 2026-05-04 14:57 | 48.86660 | 10.07681 | 34988 ft | 462 kts | 124° |
| 2026-05-04 14:58 | 48.83325 | 10.16011 | 34980 ft | 461 kts | 125° |
| 2026-05-04 14:58 | 48.80494 | 10.22846 | 34991 ft | 460 kts | 126° |
| 2026-05-04 14:59 | 48.76485 | 10.32415 | 34994 ft | 459 kts | 126° |
| 2026-05-04 15:00 | 48.71378 | 10.44621 | 34992 ft | 459 kts | 126° |
| 2026-05-04 15:00 | 48.67971 | 10.52803 | 34973 ft | 459 kts | 125° |
| 2026-05-04 15:01 | 48.62848 | 10.65022 | 34981 ft | 459 kts | 125° |
| 2026-05-04 15:01 | 48.59419 | 10.73157 | 34978 ft | 459 kts | 125° |
| 2026-05-04 15:02 | 48.55989 | 10.81261 | 34969 ft | 458 kts | 126° |
| 2026-05-04 15:02 | 48.52575 | 10.89300 | 34957 ft | 458 kts | 125° |
| 2026-05-04 15:03 | 48.49139 | 10.97388 | 34967 ft | 458 kts | 125° |
| 2026-05-04 15:03 | 48.45695 | 11.05476 | 34968 ft | 458 kts | 125° |
| 2026-05-04 15:04 | 48.42243 | 11.13552 | 34965 ft | 459 kts | 126° |
| 2026-05-04 15:04 | 48.38799 | 11.21564 | 34963 ft | 459 kts | 126° |
| 2026-05-04 15:05 | 48.35331 | 11.29612 | 34944 ft | 459 kts | 126° |
| 2026-05-04 15:05 | 48.31854 | 11.37669 | 34949 ft | 460 kts | 126° |
| 2026-05-04 15:06 | 48.28371 | 11.45734 | 34942 ft | 460 kts | 126° |
| 2026-05-04 15:07 | 48.23150 | 11.57751 | 34944 ft | 460 kts | 126° |
| 2026-05-04 15:07 | 48.19646 | 11.65786 | 34938 ft | 461 kts | 126° |
| 2026-05-04 15:08 | 48.16128 | 11.73823 | 34940 ft | 461 kts | 126° |
| 2026-05-04 15:08 | 48.12605 | 11.81841 | 34942 ft | 461 kts | 126° |
| 2026-05-04 15:09 | 48.09098 | 11.89798 | 34942 ft | 461 kts | 126° |
| 2026-05-04 15:09 | 48.05564 | 11.97801 | 34941 ft | 461 kts | 126° |
| 2026-05-04 15:10 | 48.00264 | 12.09789 | 34930 ft | 461 kts | 126° |
| 2026-05-04 15:11 | 47.95545 | 12.20392 | 34942 ft | 460 kts | 126° |
| 2026-05-04 15:11 | 47.91423 | 12.29625 | 34938 ft | 460 kts | 126° |
| 2026-05-04 15:12 | 47.87871 | 12.37566 | 34937 ft | 460 kts | 126° |
| 2026-05-04 15:12 | 47.84918 | 12.44149 | 34935 ft | 460 kts | 126° |
| 2026-05-04 15:13 | 47.81357 | 12.52054 | 34932 ft | 460 kts | 126° |
| 2026-05-04 15:13 | 47.77212 | 12.61232 | 34929 ft | 460 kts | 126° |
| 2026-05-04 15:14 | 47.74219 | 12.67837 | 34930 ft | 460 kts | 126° |
| 2026-05-04 15:14 | 47.70670 | 12.75662 | 34910 ft | 460 kts | 126° |
| 2026-05-04 15:15 | 47.66762 | 12.83103 | 34912 ft | 456 kts | 138° |
| 2026-05-04 15:15 | 47.61529 | 12.90810 | 34921 ft | 456 kts | 137° |
| 2026-05-04 15:16 | 47.55547 | 12.99648 | 34928 ft | 456 kts | 137° |
| 2026-05-04 15:17 | 47.48803 | 13.09576 | 34926 ft | 457 kts | 137° |
| 2026-05-04 15:17 | 47.42039 | 13.19490 | 34948 ft | 457 kts | 137° |
| 2026-05-04 15:18 | 47.37524 | 13.26076 | 34956 ft | 457 kts | 137° |
| 2026-05-04 15:19 | 47.30956 | 13.36165 | 34976 ft | 458 kts | 132° |
| 2026-05-04 15:19 | 47.24796 | 13.46938 | 34984 ft | 459 kts | 132° |
| 2026-05-04 15:20 | 47.20678 | 13.54104 | 34978 ft | 459 kts | 132° |
| 2026-05-04 15:20 | 47.16558 | 13.61258 | 34990 ft | 459 kts | 132° |
| 2026-05-04 15:21 | 47.12431 | 13.68409 | 35011 ft | 459 kts | 132° |
| 2026-05-04 15:22 | 47.06259 | 13.79067 | 35004 ft | 460 kts | 133° |
| 2026-05-04 15:22 | 47.00039 | 13.89768 | 35010 ft | 460 kts | 133° |
| 2026-05-04 15:23 | 46.95880 | 13.96895 | 35005 ft | 460 kts | 133° |
| 2026-05-04 15:23 | 46.91742 | 14.03971 | 34989 ft | 460 kts | 133° |
| 2026-05-04 15:24 | 46.83373 | 14.18197 | 34989 ft | 463 kts | 133° |
| 2026-05-04 15:25 | 46.79177 | 14.25321 | 34989 ft | 463 kts | 132° |
| 2026-05-04 15:26 | 46.72879 | 14.35997 | 34993 ft | 463 kts | 133° |
| 2026-05-04 15:26 | 46.66570 | 14.46612 | 34976 ft | 465 kts | 133° |
| 2026-05-04 15:27 | 46.60155 | 14.57202 | 34996 ft | 465 kts | 135° |
| 2026-05-04 15:28 | 46.53413 | 14.67342 | 35012 ft | 466 kts | 136° |
| 2026-05-04 15:29 | 46.46668 | 14.77423 | 35030 ft | 466 kts | 136° |
| 2026-05-04 15:30 | 46.30918 | 15.01173 | 35031 ft | 468 kts | 135° |
| 2026-05-04 15:31 | 46.24117 | 15.11328 | 35022 ft | 469 kts | 135° |
| 2026-05-04 15:32 | 46.12747 | 15.28225 | 35009 ft | 469 kts | 135° |
| 2026-05-04 15:34 | 46.01575 | 15.45278 | 35002 ft | 470 kts | 134° |
| 2026-05-04 15:34 | 45.94895 | 15.55587 | 34991 ft | 470 kts | 134° |
| 2026-05-04 15:35 | 45.88205 | 15.65777 | 34985 ft | 470 kts | 134° |
| 2026-05-04 15:36 | 45.81476 | 15.75997 | 34994 ft | 470 kts | 134° |
| 2026-05-04 15:36 | 45.76993 | 15.82807 | 34999 ft | 470 kts | 134° |
| 2026-05-04 15:37 | 45.72500 | 15.89610 | 35006 ft | 470 kts | 134° |
| 2026-05-04 15:37 | 45.68035 | 15.96357 | 35016 ft | 470 kts | 134° |
| 2026-05-04 15:38 | 45.63533 | 16.03141 | 35017 ft | 470 kts | 134° |
| 2026-05-04 15:38 | 45.59025 | 16.09904 | 35015 ft | 470 kts | 134° |
| 2026-05-04 15:39 | 45.54517 | 16.16662 | 35017 ft | 470 kts | 134° |
| 2026-05-04 15:40 | 45.47774 | 16.26736 | 35017 ft | 470 kts | 134° |
| 2026-05-04 15:40 | 45.43249 | 16.33470 | 35023 ft | 470 kts | 134° |
| 2026-05-04 15:41 | 45.38724 | 16.40190 | 35023 ft | 470 kts | 134° |
| 2026-05-04 15:41 | 45.34189 | 16.46906 | 35015 ft | 471 kts | 134° |
| 2026-05-04 15:42 | 45.29680 | 16.53568 | 35023 ft | 471 kts | 134° |
| 2026-05-04 15:42 | 45.25130 | 16.60271 | 35027 ft | 471 kts | 134° |
| 2026-05-04 15:43 | 45.20580 | 16.66963 | 35018 ft | 471 kts | 134° |
| 2026-05-04 15:43 | 45.16009 | 16.73632 | 35022 ft | 472 kts | 134° |
| 2026-05-04 15:44 | 45.11413 | 16.80260 | 35021 ft | 472 kts | 134° |
| 2026-05-04 15:44 | 45.06836 | 16.86836 | 35028 ft | 472 kts | 134° |
| 2026-05-04 15:45 | 45.02231 | 16.93463 | 35039 ft | 472 kts | 134° |
| 2026-05-04 15:45 | 44.97625 | 17.00086 | 35035 ft | 473 kts | 134° |
| 2026-05-04 15:46 | 44.93005 | 17.06696 | 35031 ft | 473 kts | 134° |
| 2026-05-04 15:46 | 44.88378 | 17.13301 | 35031 ft | 473 kts | 134° |
| 2026-05-04 15:47 | 44.83775 | 17.19855 | 35029 ft | 474 kts | 134° |
| 2026-05-04 15:47 | 44.79132 | 17.26451 | 35026 ft | 474 kts | 134° |
| 2026-05-04 15:48 | 44.74483 | 17.33041 | 35036 ft | 474 kts | 134° |
| 2026-05-04 15:48 | 44.67503 | 17.42911 | 35052 ft | 475 kts | 134° |
| 2026-05-04 15:49 | 44.62869 | 17.49451 | 35062 ft | 475 kts | 134° |
| 2026-05-04 15:49 | 44.58201 | 17.56009 | 35043 ft | 475 kts | 134° |
| 2026-05-04 15:50 | 44.53531 | 17.62558 | 35053 ft | 475 kts | 134° |
| 2026-05-04 15:50 | 44.48849 | 17.69106 | 35052 ft | 476 kts | 134° |
| 2026-05-04 15:51 | 44.44164 | 17.75645 | 35052 ft | 476 kts | 134° |
| 2026-05-04 15:51 | 44.39473 | 17.82184 | 35054 ft | 476 kts | 134° |
| 2026-05-04 15:52 | 44.34808 | 17.88659 | 35052 ft | 475 kts | 134° |
| 2026-05-04 15:52 | 44.30112 | 17.95171 | 35053 ft | 476 kts | 134° |
| 2026-05-04 15:53 | 44.25411 | 18.01667 | 35048 ft | 475 kts | 134° |
| 2026-05-04 15:53 | 44.20704 | 18.08154 | 35045 ft | 476 kts | 134° |
| 2026-05-04 15:54 | 44.16001 | 18.14634 | 35061 ft | 476 kts | 134° |
| 2026-05-04 15:54 | 44.11290 | 18.21103 | 35056 ft | 476 kts | 134° |
| 2026-05-04 15:55 | 44.06571 | 18.27570 | 35056 ft | 476 kts | 134° |
| 2026-05-04 15:55 | 44.01847 | 18.34031 | 35059 ft | 476 kts | 134° |
| 2026-05-04 15:56 | 43.97145 | 18.40427 | 35056 ft | 476 kts | 135° |
| 2026-05-04 15:56 | 43.92411 | 18.46860 | 35049 ft | 476 kts | 134° |
| 2026-05-04 15:57 | 43.87677 | 18.53290 | 35056 ft | 476 kts | 134° |
| 2026-05-04 15:57 | 43.82938 | 18.59715 | 35045 ft | 477 kts | 135° |
| 2026-05-04 15:58 | 43.78183 | 18.66125 | 35051 ft | 477 kts | 135° |
| 2026-05-04 15:58 | 43.73423 | 18.72528 | 35057 ft | 477 kts | 135° |
| 2026-05-04 15:59 | 43.68664 | 18.78927 | 35060 ft | 477 kts | 135° |
| 2026-05-04 15:59 | 43.63907 | 18.85321 | 35056 ft | 477 kts | 135° |
| 2026-05-04 16:00 | 43.59141 | 18.91698 | 35068 ft | 477 kts | 134° |
| 2026-05-04 16:00 | 43.54361 | 18.98072 | 35067 ft | 478 kts | 135° |
| 2026-05-04 16:01 | 43.49573 | 19.04440 | 35064 ft | 478 kts | 135° |
| 2026-05-04 16:01 | 43.44787 | 19.10807 | 35067 ft | 479 kts | 135° |
| 2026-05-04 16:02 | 43.39992 | 19.17164 | 35088 ft | 479 kts | 134° |
| 2026-05-04 16:03 | 43.32775 | 19.26692 | 35082 ft | 479 kts | 134° |
| 2026-05-04 16:03 | 43.27965 | 19.33040 | 35082 ft | 480 kts | 134° |
| 2026-05-04 16:04 | 43.23179 | 19.39331 | 35081 ft | 480 kts | 135° |
| 2026-05-04 16:04 | 43.15933 | 19.48818 | 35094 ft | 480 kts | 134° |
| 2026-05-04 16:05 | 43.11097 | 19.55137 | 35089 ft | 481 kts | 134° |
| 2026-05-04 16:06 | 43.03838 | 19.64602 | 35086 ft | 480 kts | 134° |
| 2026-05-04 16:07 | 42.94143 | 19.77184 | 35088 ft | 481 kts | 134° |
| 2026-05-04 16:08 | 42.84431 | 19.89749 | 35109 ft | 481 kts | 134° |
| 2026-05-04 16:09 | 42.72590 | 20.05765 | 35104 ft | 478 kts | 127° |
| 2026-05-04 16:10 | 42.64127 | 20.19746 | 35121 ft | 479 kts | 127° |
| 2026-05-04 16:11 | 42.55637 | 20.33702 | 35109 ft | 480 kts | 127° |
| 2026-05-04 16:12 | 42.42866 | 20.54550 | 35121 ft | 481 kts | 126° |
| 2026-05-04 16:13 | 42.34294 | 20.68468 | 35124 ft | 482 kts | 127° |
| 2026-05-04 16:14 | 42.25689 | 20.82361 | 35145 ft | 483 kts | 126° |
| 2026-05-04 16:16 | 42.14909 | 20.99706 | 35142 ft | 482 kts | 126° |
| 2026-05-04 16:17 | 42.03158 | 21.15826 | 35151 ft | 486 kts | 134° |
| 2026-05-04 16:18 | 41.93331 | 21.28298 | 35130 ft | 485 kts | 134° |
| 2026-05-04 16:19 | 41.81050 | 21.43760 | 35109 ft | 486 kts | 134° |
| 2026-05-04 16:20 | 41.68717 | 21.59240 | 35085 ft | 487 kts | 134° |
| 2026-05-04 16:22 | 41.56337 | 21.74644 | 35093 ft | 488 kts | 134° |
| 2026-05-04 16:23 | 41.41459 | 21.93087 | 35116 ft | 488 kts | 134° |
| 2026-05-04 16:25 | 41.26515 | 22.11484 | 35106 ft | 488 kts | 134° |
| 2026-05-04 16:26 | 41.08778 | 22.32304 | 35104 ft | 488 kts | 139° |
| 2026-05-04 16:28 | 40.95534 | 22.46245 | 35098 ft | 488 kts | 139° |
| 2026-05-04 16:29 | 40.77143 | 22.65895 | 35095 ft | 485 kts | 139° |
| 2026-05-04 16:31 | 40.64052 | 22.79770 | 35092 ft | 484 kts | 140° |
| 2026-05-04 16:32 | 40.48448 | 22.96203 | 35111 ft | 477 kts | 140° |
| 2026-05-04 16:33 | 40.39014 | 23.08318 | 35103 ft | 474 kts | 131° |
| 2026-05-04 16:34 | 40.32275 | 23.17650 | 35086 ft | 462 kts | 131° |
| 2026-05-04 16:35 | 40.19053 | 23.35809 | 35084 ft | 460 kts | 132° |
| 2026-05-04 16:36 | 40.12386 | 23.44926 | 35096 ft | 463 kts | 132° |
| 2026-05-04 16:37 | 40.05751 | 23.53986 | 35095 ft | 461 kts | 132° |
| 2026-05-04 16:38 | 39.96881 | 23.66041 | 35090 ft | 460 kts | 133° |
| 2026-05-04 16:39 | 39.85829 | 23.81004 | 35085 ft | 460 kts | 133° |
| 2026-05-04 16:40 | 39.77681 | 23.91971 | 35076 ft | 461 kts | 132° |
| 2026-05-04 16:41 | 39.65803 | 24.07903 | 35093 ft | 461 kts | 133° |
| 2026-05-04 16:43 | 39.55363 | 24.21834 | 35087 ft | 463 kts | 133° |
| 2026-05-04 16:43 | 39.48629 | 24.30794 | 35090 ft | 463 kts | 133° |
| 2026-05-04 16:45 | 39.35138 | 24.48654 | 35088 ft | 465 kts | 133° |
| 2026-05-04 16:46 | 39.23874 | 24.63666 | 35085 ft | 466 kts | 132° |
| 2026-05-04 16:47 | 39.14882 | 24.75664 | 35089 ft | 467 kts | 133° |
| 2026-05-04 16:48 | 39.05794 | 24.87639 | 35093 ft | 468 kts | 133° |
| 2026-05-04 16:49 | 38.96634 | 24.99445 | 35092 ft | 468 kts | 134° |
| 2026-05-04 16:50 | 38.87423 | 25.11345 | 35084 ft | 470 kts | 133° |
| 2026-05-04 16:51 | 38.80522 | 25.20238 | 35086 ft | 471 kts | 133° |
| 2026-05-04 16:52 | 38.71247 | 25.32123 | 35089 ft | 472 kts | 133° |
| 2026-05-04 16:53 | 38.64271 | 25.41034 | 35087 ft | 473 kts | 133° |
| 2026-05-04 16:54 | 38.54973 | 25.52880 | 35080 ft | 474 kts | 133° |
| 2026-05-04 16:55 | 38.40928 | 25.70669 | 35095 ft | 474 kts | 133° |
| 2026-05-04 16:56 | 38.29239 | 25.85429 | 35075 ft | 475 kts | 133° |
| 2026-05-04 16:57 | 38.21059 | 25.92455 | 35069 ft | 478 kts | 159° |
| 2026-05-04 16:58 | 38.08557 | 25.98143 | 35073 ft | 480 kts | 160° |
| 2026-05-04 17:00 | 37.89700 | 26.06719 | 35077 ft | 482 kts | 160° |
| 2026-05-04 17:01 | 37.73884 | 26.13872 | 35067 ft | 483 kts | 160° |
| 2026-05-04 17:02 | 37.61241 | 26.19530 | 35073 ft | 484 kts | 160° |
| 2026-05-04 17:03 | 37.51711 | 26.23806 | 35083 ft | 485 kts | 160° |
| 2026-05-04 17:03 | 37.42184 | 26.28057 | 35092 ft | 484 kts | 160° |
| 2026-05-04 17:04 | 37.29519 | 26.33703 | 35078 ft | 485 kts | 160° |
| 2026-05-04 17:05 | 37.16807 | 26.39351 | 35070 ft | 485 kts | 161° |
| 2026-05-04 17:06 | 37.07252 | 26.43585 | 35063 ft | 486 kts | 161° |
| 2026-05-04 17:07 | 36.98758 | 26.47345 | 35065 ft | 487 kts | 161° |
| 2026-05-04 17:07 | 36.91771 | 26.51757 | 35050 ft | 486 kts | 141° |
| 2026-05-04 17:08 | 36.89275 | 26.54594 | 35052 ft | 485 kts | 130° |
| 2026-05-04 17:08 | 36.85556 | 26.61552 | 35052 ft | 481 kts | 111° |
| 2026-05-04 17:09 | 36.82910 | 26.69224 | 35042 ft | 482 kts | 110° |
| 2026-05-04 17:09 | 36.80273 | 26.76856 | 35042 ft | 483 kts | 111° |
| 2026-05-04 17:10 | 36.73624 | 26.96091 | 34797 ft | 484 kts | 111° |
| 2026-05-04 17:11 | 36.72281 | 26.99981 | 33680 ft | 493 kts | 111° |
| 2026-05-04 17:11 | 36.70929 | 27.03895 | 32911 ft | 490 kts | 110° |
| 2026-05-04 17:11 | 36.68245 | 27.11600 | 31364 ft | 486 kts | 110° |
| 2026-05-04 17:12 | 36.66900 | 27.15435 | 30360 ft | 480 kts | 110° |
| 2026-05-04 17:12 | 36.64224 | 27.23067 | 26721 ft | 487 kts | 110° |
| 2026-05-04 17:13 | 36.60147 | 27.34724 | 23936 ft | 485 kts | 111° |
| 2026-05-04 17:14 | 36.56152 | 27.46030 | 21583 ft | 470 kts | 111° |
| 2026-05-04 17:14 | 36.54843 | 27.49734 | 20872 ft | 466 kts | 111° |
| 2026-05-04 17:14 | 36.52249 | 27.57054 | 19496 ft | 459 kts | 110° |
| 2026-05-04 17:15 | 36.50967 | 27.60677 | 18828 ft | 456 kts | 110° |
| 2026-05-04 17:15 | 36.48433 | 27.67831 | 17531 ft | 448 kts | 110° |
| 2026-05-04 17:16 | 36.46332 | 27.74895 | 16383 ft | 430 kts | 98° |
| 2026-05-04 17:16 | 36.44875 | 27.85629 | 14777 ft | 412 kts | 96° |
| 2026-05-04 17:17 | 36.44303 | 27.89103 | 14249 ft | 411 kts | 102° |
| 2026-05-04 17:17 | 36.40143 | 27.98254 | 12485 ft | 408 kts | 126° |
| 2026-05-04 17:18 | 36.38425 | 28.01029 | 11864 ft | 404 kts | 126° |
| 2026-05-04 17:18 | 36.35032 | 28.06505 | 11009 ft | 389 kts | 126° |
| 2026-05-04 17:19 | 36.31906 | 28.11662 | 10763 ft | 360 kts | 124° |
| 2026-05-04 17:19 | 36.29122 | 28.16511 | 10515 ft | 334 kts | 124° |
| 2026-05-04 17:20 | 36.26534 | 28.21043 | 9997 ft | 317 kts | 122° |
| 2026-05-04 17:20 | 36.25614 | 28.26250 | 9021 ft | 307 kts | 73° |
| 2026-05-04 17:20 | 36.26335 | 28.28631 | 8583 ft | 287 kts | 51° |
| 2026-05-04 17:21 | 36.29227 | 28.31517 | 7370 ft | 260 kts | 14° |
| 2026-05-04 17:21 | 36.32716 | 28.31820 | 6274 ft | 252 kts | 358° |
| 2026-05-04 17:22 | 36.34459 | 28.31760 | 5760 ft | 249 kts | 358° |
| 2026-05-04 17:22 | 36.36183 | 28.31707 | 5267 ft | 247 kts | 358° |
| 2026-05-04 17:23 | 36.41277 | 28.31291 | 3879 ft | 231 kts | 342° |
| 2026-05-04 17:23 | 36.42669 | 28.30443 | 3743 ft | 216 kts | 327° |
| 2026-05-04 17:23 | 36.44463 | 28.27785 | 3567 ft | 194 kts | 300° |
| 2026-05-04 17:24 | 36.44857 | 28.26233 | 3535 ft | 182 kts | 287° |
| 2026-05-04 17:24 | 36.44408 | 28.21876 | 3008 ft | 176 kts | 259° |
| 2026-05-04 17:25 | 36.43956 | 28.20432 | 2304 ft | 182 kts | 255° |
| 2026-05-04 17:25 | 36.43092 | 28.17597 | 1315 ft | 163 kts | 261° |
| 2026-05-04 17:26 | 36.42435 | 28.15180 | 872 ft | 135 kts | 258° |
| 2026-05-04 17:26 | 36.41486 | 28.11879 | 328 ft | 136 kts | 255° |
| 2026-05-04 17:27 | 36.40861 | 28.09740 | 26 ft | 124 kts | 252° |
| 2026-05-04 17:27 | 36.40573 | 28.08756 | 24 ft | 24 kts | 250° |
| 2026-05-04 17:28 | 36.40473 | 28.08657 | 23 ft | 5 kts | 130° |
| 2026-05-04 17:29 | 36.40408 | 28.08814 | 23 ft | 7 kts | 116° |
| 2026-05-04 17:29 | 36.40405 | 28.09024 | 24 ft | 8 kts | 76° |
| 2026-05-04 17:30 | 36.40437 | 28.09138 | 23 ft | 3 kts | 79° |
| 2026-05-04 17:31 | 36.40395 | 28.09171 | 25 ft | 3 kts | 157° |
| 2026-05-04 17:31 | 36.40375 | 28.09180 | 24 ft | 0 kts | 159° |